Time;durP1;ratioP1;P1;durP2;ratioP2;P2;SDS_P1;SDS_P2;PMS_P1;PMS_P2;Temp;Humidity;BMP_temperature;BMP_pressure;BME280_temperature;BME280_humidity;BME280_pressure;Samples;Min_cycle;Max_cycle;Signal;HPM_P1;HPM_P2
2023/04/21 00:01:07;;;;;;;21.98;19.65;;;11.50;99.90;;;11.75;76.54;101420.25;5052351;28;20128;-72
2023/04/21 00:03:37;;;;;;;21.88;19.50;;;11.50;99.90;;;11.78;76.64;101437.91;5052661;28;20425;-72
2023/04/21 00:06:06;;;;;;;23.35;20.65;;;11.50;99.90;;;11.49;77.01;101365.47;5052384;28;20095;-72
2023/04/21 00:08:39;;;;;;;23.73;19.90;;;11.50;99.90;;;11.71;77.33;101399.06;5053292;28;20072;-72
2023/04/21 00:11:07;;;;;;;23.58;19.98;;;11.50;99.90;;;11.73;77.67;101400.81;5056365;28;20441;-72
2023/04/21 00:13:36;;;;;;;25.63;19.92;;;11.50;99.90;;;11.69;77.92;101395.53;5056762;28;20049;-72
2023/04/21 00:16:05;;;;;;;22.13;19.73;;;11.40;99.90;;;11.62;78.49;101391.94;5056230;28;20482;-72
2023/04/21 00:18:35;;;;;;;24.75;20.10;;;11.40;99.90;;;11.61;79.07;101399.91;5071811;28;20052;-72
2023/04/21 00:21:05;;;;;;;26.05;20.00;;;11.40;99.90;;;11.57;79.60;101412.28;5056255;28;20045;-72
2023/04/21 00:23:33;;;;;;;25.17;20.25;;;11.30;99.90;;;11.55;80.02;101416.69;5056278;28;20045;-72
2023/04/21 00:26:02;;;;;;;25.92;20.88;;;11.30;99.90;;;11.34;80.58;101424.59;5055952;28;20076;-72
2023/04/21 00:28:30;;;;;;;22.92;19.95;;;11.10;99.90;;;11.42;81.00;101419.31;5056501;28;20052;-72
2023/04/21 00:30:59;;;;;;;26.00;20.40;;;11.10;99.90;;;11.40;81.28;101421.09;5056209;28;20453;-72
2023/04/21 00:33:27;;;;;;;25.50;20.90;;;11.20;99.90;;;11.34;81.74;101423.72;5055863;28;20079;-72
2023/04/21 00:35:58;;;;;;;27.17;20.45;;;11.10;99.90;;;11.36;82.08;101422.81;5054515;28;20057;-72
2023/04/21 00:38:27;;;;;;;22.92;19.70;;;11.10;99.90;;;11.34;82.60;101410.50;5055850;28;20102;-72
2023/04/21 00:40:56;;;;;;;25.13;20.65;;;11.10;99.90;;;11.32;83.11;101410.50;5054570;28;20041;-72
2023/04/21 00:43:25;;;;;;;25.02;20.85;;;11.10;99.90;;;11.39;83.07;101406.97;5054647;28;20088;-72
2023/04/21 00:45:54;;;;;;;24.60;19.88;;;11.10;99.90;;;11.35;83.41;101404.28;5054740;28;20053;-72
2023/04/21 00:48:23;;;;;;;28.27;21.40;;;11.10;99.90;;;11.30;83.96;101374.28;5055517;28;20048;-72
2023/04/21 00:50:51;;;;;;;27.38;20.70;;;11.00;99.90;;;11.32;84.25;101378.72;5055788;28;20071;-72
2023/04/21 00:53:21;;;;;;;28.20;21.50;;;11.00;99.90;;;11.20;84.35;101378.69;5054426;28;20091;-72
2023/04/21 00:55:51;;;;;;;27.38;21.50;;;11.00;99.90;;;11.26;84.44;101375.16;5054404;28;20067;-72
2023/04/21 00:58:20;;;;;;;28.48;22.55;;;11.00;99.90;;;11.23;85.09;101377.78;5055603;28;20045;-72
2023/04/21 01:00:48;;;;;;;28.77;21.52;;;11.00;99.90;;;11.22;84.97;101361.03;5055595;28;20041;-72
2023/04/21 01:03:17;;;;;;;28.80;21.75;;;11.00;99.90;;;11.29;85.03;101361.91;5055512;28;20449;-72
2023/04/21 01:05:45;;;;;;;26.88;21.45;;;11.00;99.90;;;11.29;85.00;101368.09;5054210;28;20445;-72
2023/04/21 01:08:15;;;;;;;28.70;22.63;;;11.00;99.90;;;11.29;85.30;101367.22;5054164;28;20552;-72
2023/04/21 01:10:44;;;;;;;28.75;21.75;;;11.00;99.90;;;11.32;85.09;101372.53;5053826;28;20041;-72
2023/04/21 01:13:13;;;;;;;28.38;22.38;;;11.00;99.90;;;11.10;85.33;101368.97;5055324;28;20049;-72
2023/04/21 01:15:41;;;;;;;30.83;23.17;;;10.90;99.90;;;11.18;85.84;101363.69;5055425;28;20055;-72
2023/04/21 01:18:09;;;;;;;27.65;22.27;;;10.90;99.90;;;11.03;86.21;101364.56;5053984;28;20139;-72
2023/04/21 01:20:38;;;;;;;27.48;22.67;;;10.80;99.90;;;11.05;86.61;101370.75;5054453;28;20398;-73
2023/04/21 01:23:08;;;;;;;30.10;23.35;;;10.80;99.90;;;10.94;86.89;101366.31;5054936;28;20501;-72
2023/04/21 01:25:36;;;;;;;28.97;23.30;;;10.70;99.90;;;10.87;87.77;101373.34;5070583;28;20052;-71
2023/04/21 01:28:05;;;;;;;29.15;23.60;;;10.70;99.90;;;10.88;87.77;101335.38;5053764;28;20387;-72
2023/04/21 01:30:33;;;;;;;30.50;24.08;;;10.70;99.90;;;11.11;87.73;101361.91;5054791;28;20509;-72
2023/04/21 01:33:01;;;;;;;31.70;24.90;;;10.80;99.90;;;11.01;87.88;101365.44;5055076;28;20120;-72
2023/04/21 01:35:30;;;;;;;30.88;24.52;;;10.80;99.90;;;10.97;88.13;101343.38;5054958;28;20478;-72
2023/04/21 01:37:59;;;;;;;32.83;23.98;;;10.80;99.90;;;11.11;88.50;101365.41;5054985;28;20037;-72
2023/04/21 01:40:29;;;;;;;37.35;25.42;;;10.80;99.90;;;11.01;88.75;101350.44;5053512;28;20098;-72
2023/04/21 01:42:58;;;;;;;31.73;25.10;;;10.80;99.90;;;10.85;88.97;101359.22;5070257;28;20100;-72
2023/04/21 01:45:26;;;;;;;33.30;24.27;;;10.70;99.90;;;10.64;89.44;101356.50;5054764;28;20083;-72
2023/04/21 01:47:54;;;;;;;31.30;24.15;;;10.60;99.90;;;10.63;90.92;101352.09;5053687;28;20585;-72
2023/04/21 01:50:23;;;;;;;31.33;25.55;;;10.40;99.90;;;10.87;90.79;101352.16;5054750;28;20129;-72
2023/04/21 01:52:51;;;;;;;32.03;24.80;;;10.50;99.90;;;10.92;90.64;101354.84;5054358;28;20040;-72
2023/04/21 01:55:20;;;;;;;33.35;25.42;;;10.60;99.90;;;11.00;90.48;101340.72;5054583;28;20120;-72
2023/04/21 01:57:50;;;;;;;33.08;25.30;;;10.70;99.90;;;11.00;90.52;101334.53;5053238;28;20045;-72
2023/04/21 02:00:19;;;;;;;30.67;24.77;;;10.70;99.90;;;11.08;90.43;101333.66;5053116;28;20051;-72
2023/04/21 02:02:48;;;;;;;35.30;25.73;;;10.80;99.90;;;11.02;90.40;101331.00;5053215;28;20111;-72
2023/04/21 02:05:17;;;;;;;34.63;25.27;;;10.80;99.90;;;11.08;90.41;101324.84;5053102;28;20502;-72
2023/04/21 02:07:45;;;;;;;35.80;25.73;;;10.80;99.90;;;10.95;90.43;101316.00;5053032;28;20127;-72
2023/04/21 02:10:15;;;;;;;33.10;25.50;;;10.70;99.90;;;10.95;90.57;101316.00;5054306;28;20049;-72
2023/04/21 02:12:45;;;;;;;38.83;26.83;;;10.70;99.90;;;10.87;90.65;101310.72;5052754;28;20043;-72
2023/04/21 02:15:14;;;;;;;35.28;25.27;;;10.70;99.90;;;10.89;90.53;101313.34;5052917;28;20482;-72
2023/04/21 02:17:43;;;;;;;35.95;25.38;;;10.70;99.90;;;10.73;90.84;101316.84;5054199;28;20037;-72
2023/04/21 02:20:12;;;;;;;37.05;26.80;;;10.60;99.90;;;10.55;91.80;101308.88;5054047;28;20045;-72
2023/04/21 02:22:40;;;;;;;35.45;26.40;;;10.40;99.90;;;10.57;91.58;101301.81;5052659;28;20398;-72
2023/04/21 02:25:09;;;;;;;34.92;26.58;;;10.30;99.90;;;10.54;91.56;101302.72;5052677;28;20049;-72
2023/04/21 02:27:39;;;;;;;35.88;26.25;;;10.30;99.90;;;10.51;91.79;101304.47;5052427;28;20102;-72
2023/04/21 02:30:09;;;;;;;34.33;25.80;;;10.30;99.90;;;10.47;92.20;101297.41;5053912;28;20041;-72
2023/04/21 02:32:39;;;;;;;;;;;10.20;99.90;;;10.49;92.05;101311.50;5052007;28;20448;-72
2023/04/21 02:35:09;;;;;;;35.75;27.63;;;10.30;99.90;;;10.15;92.55;101277.88;5052583;28;19921;-71
2023/04/21 02:37:38;;;;;;;39.63;26.57;;;10.10;99.90;;;10.34;92.75;101300.84;5053516;28;20044;-71
2023/04/21 02:40:08;;;;;;;34.25;25.40;;;10.10;99.90;;;10.36;93.10;101293.81;5053585;28;20051;-72
2023/04/21 02:42:36;;;;;;;35.28;26.50;;;10.10;99.90;;;10.08;93.26;101282.25;5052415;28;20044;-71
2023/04/21 02:45:06;;;;;;;36.35;27.50;;;10.00;99.90;;;10.17;94.23;101291.97;5053373;28;20601;-72
2023/04/21 02:47:36;;;;;;;33.63;25.77;;;9.90;99.90;;;10.21;94.14;101291.13;5052370;28;20418;-71
2023/04/21 02:50:08;;;;;;;35.90;27.17;;;9.90;99.90;;;10.32;93.56;101289.38;5051999;28;20077;-72
2023/04/21 02:52:37;;;;;;;37.08;27.58;;;10.10;99.90;;;10.08;94.30;101292.81;5068284;28;20049;-72
2023/04/21 02:55:06;;;;;;;34.55;26.83;;;9.90;99.90;;;9.98;94.73;101291.00;5051439;28;20512;-72
2023/04/21 02:57:35;;;;;;;37.15;27.35;;;9.80;99.90;;;9.84;95.34;101284.75;5052787;28;20037;-71
2023/04/21 03:00:06;;;;;;;36.22;26.45;;;9.70;99.90;;;9.86;96.06;101286.53;5051418;28;20041;-73
2023/04/21 03:02:34;;;;;;;40.72;27.90;;;9.60;99.90;;;9.70;96.08;101284.69;5052683;28;20037;-72
2023/04/21 03:05:05;;;;;;;33.78;26.40;;;9.50;99.90;;;9.70;96.68;101279.41;5052349;28;20387;-72
2023/04/21 03:07:33;;;;;;;38.08;27.92;;;9.40;99.90;;;9.62;97.50;101286.38;5051385;28;20103;-71
2023/04/21 03:10:02;;;;;;;36.17;26.10;;;9.30;99.90;;;9.40;97.03;101281.88;5052301;28;20037;-72
2023/04/21 03:12:30;;;;;;;35.70;26.48;;;9.30;99.90;;;9.33;98.50;101287.94;5052522;28;20045;-72
2023/04/21 03:14:58;;;;;;;41.00;28.50;;;9.10;99.90;;;9.17;99.94;101283.44;5051185;28;20446;-71
2023/04/21 03:17:27;;;;;;;35.63;26.95;;;8.90;99.90;;;9.21;99.79;101282.59;5051100;28;20053;-71
2023/04/21 03:19:58;;;;;;;39.83;26.85;;;9.00;99.90;;;9.47;100.00;101280.13;5084609;28;20068;-71
2023/04/21 03:22:27;;;;;;;39.17;27.65;;;9.10;99.90;;;9.48;99.96;101277.53;5052413;28;20128;-71
2023/04/21 03:24:56;;;;;;;38.03;27.83;;;9.20;99.90;;;9.73;99.19;101268.88;5050693;28;20056;-71
2023/04/21 03:27:24;;;;;;;37.55;27.75;;;9.40;99.90;;;9.82;98.74;101266.25;5067692;28;20291;-72
2023/04/21 03:29:53;;;;;;;34.58;26.98;;;9.50;99.90;;;9.87;98.31;101264.50;5052383;28;20124;-72
2023/04/21 03:32:21;;;;;;;38.45;28.38;;;9.50;99.90;;;9.88;97.76;101266.28;5067582;28;20049;-72
2023/04/21 03:34:50;;;;;;;34.92;27.50;;;9.60;99.90;;;10.00;97.31;101262.81;5051024;28;20841;-71
2023/04/21 03:37:20;;;;;;;33.47;26.45;;;9.70;99.90;;;10.09;97.00;101259.31;5052267;28;20056;-71
2023/04/21 03:39:50;;;;;;;35.63;27.40;;;9.80;99.90;;;10.11;97.36;101261.13;5050695;28;20482;-72
2023/04/21 03:42:20;;;;;;;37.58;27.90;;;9.80;99.90;;;10.30;96.67;101259.44;5067542;28;20133;-71
2023/04/21 03:44:49;;;;;;;34.33;27.40;;;9.90;99.90;;;10.35;95.89;101248.00;5050018;28;20053;-72
2023/04/21 03:47:17;;;;;;;38.28;28.30;;;10.10;99.90;;;10.50;95.33;101253.31;5050747;28;20049;-71
2023/04/21 03:49:46;;;;;;;41.03;28.75;;;10.20;99.90;;;10.62;94.82;101247.16;5067179;28;20043;-72
2023/04/21 03:52:14;;;;;;;36.63;28.67;;;10.40;99.90;;;10.64;95.03;101248.94;5051782;28;20120;-71
2023/04/21 03:54:42;;;;;;;37.60;28.92;;;10.40;99.90;;;10.77;94.24;101247.19;5052307;28;20549;-71
2023/04/21 03:57:12;;;;;;;36.92;27.58;;;10.50;99.90;;;10.64;94.35;101243.66;5051707;28;20116;-71
2023/04/21 03:59:41;;;;;;;37.75;28.25;;;10.40;99.90;;;10.10;94.25;101129.88;5052039;28;20490;-71
2023/04/21 04:02:09;;;;;;;37.55;28.13;;;10.40;99.90;;;10.82;94.01;101240.13;5051911;28;20415;-71
2023/04/21 04:04:38;;;;;;;35.67;28.00;;;10.60;99.90;;;10.88;93.59;101234.81;5051897;28;20037;-71
2023/04/21 04:07:08;;;;;;;39.22;28.83;;;10.60;99.90;;;10.89;93.29;101228.66;5051668;28;20045;-72
2023/04/21 04:09:37;;;;;;;40.10;30.10;;;10.60;99.90;;;10.95;93.48;101226.03;5050614;28;20045;-71
2023/04/21 04:12:05;;;;;;;41.17;30.63;;;10.60;99.90;;;10.98;93.23;101223.38;5051663;28;20045;-71
2023/04/21 04:14:35;;;;;;;39.25;29.40;;;10.70;99.90;;;11.06;93.05;101224.25;5050610;28;20524;-71
2023/04/21 04:17:04;;;;;;;42.03;30.70;;;10.70;99.90;;;11.05;92.88;101225.16;5051688;28;20044;-71
2023/04/21 04:19:32;;;;;;;41.80;32.13;;;10.80;99.90;;;11.11;92.85;101235.69;5051615;28;20045;-72
2023/04/21 04:22:01;;;;;;;43.63;32.00;;;10.80;99.90;;;11.16;92.92;101223.34;5051998;28;20041;-71
2023/04/21 04:24:29;;;;;;;44.83;33.13;;;10.90;99.90;;;11.06;93.12;101229.53;5051913;28;20045;-71
2023/04/21 04:26:58;;;;;;;45.10;32.83;;;10.80;99.90;;;10.95;93.39;101238.38;5051707;28;20124;-71
2023/04/21 04:29:27;;;;;;;44.58;33.40;;;10.70;99.90;;;10.79;93.67;101229.53;5051609;28;20048;-72
2023/04/21 04:32:00;;;;;;;47.20;34.45;;;10.60;99.90;;;10.94;93.98;101218.09;5051823;28;20045;-71
2023/04/21 04:34:29;;;;;;;46.80;34.67;;;10.60;99.90;;;10.94;93.91;101231.31;5051616;28;20094;-72
2023/04/21 04:36:57;;;;;;;47.13;34.70;;;10.70;99.90;;;10.97;94.04;101226.00;5052086;28;20049;-72
2023/04/21 04:39:26;;;;;;;49.03;34.47;;;10.70;99.90;;;10.96;94.00;101230.41;5051417;28;20499;-71
2023/04/21 04:41:54;;;;;;;48.72;35.55;;;10.70;99.90;;;10.98;93.92;101233.06;5050796;28;20056;-71
2023/04/21 04:44:24;;;;;;;48.75;34.50;;;10.70;99.90;;;10.95;94.00;101223.38;5051840;28;20045;-72
2023/04/21 04:46:53;;;;;;;48.45;34.80;;;10.70;99.90;;;10.77;93.80;101229.53;5051558;28;20044;-72
2023/04/21 04:49:23;;;;;;;48.90;34.47;;;10.60;99.90;;;10.82;94.62;101233.06;5051395;28;20044;-72
2023/04/21 04:51:51;;;;;;;46.60;35.20;;;10.60;99.90;;;10.80;94.47;101233.97;5051656;28;20409;-71
2023/04/21 04:54:20;;;;;;;50.45;36.05;;;10.60;99.90;;;10.92;94.67;101241.88;5051602;28;20049;-71
2023/04/21 04:56:49;;;;;;;49.70;36.70;;;10.70;99.90;;;10.83;94.33;101237.50;5052706;28;20049;-72
2023/04/21 04:59:17;;;;;;;48.70;35.97;;;10.60;99.90;;;10.67;95.52;101226.88;5054881;28;20064;-72
2023/04/21 05:01:46;;;;;;;54.40;36.60;;;10.50;99.90;;;10.74;95.40;101231.31;5054822;28;20095;-72
2023/04/21 05:04:15;;;;;;;51.80;36.72;;;10.50;99.90;;;10.95;95.50;101233.06;5054853;28;20045;-70
2023/04/21 05:06:46;;;;;;;49.65;36.17;;;10.60;99.90;;;10.78;95.17;101230.44;5055262;28;20044;-69
2023/04/21 05:09:15;;;;;;;49.60;36.65;;;10.60;99.90;;;10.98;95.34;101241.00;5055287;28;20075;-69
2023/04/21 05:11:43;;;;;;;51.65;37.65;;;10.70;99.90;;;10.70;95.12;101184.56;5054793;28;20060;-69
2023/04/21 05:14:12;;;;;;;51.33;37.22;;;10.70;99.90;;;11.09;94.91;101232.16;5054319;28;20041;-70
2023/04/21 05:16:40;;;;;;;54.25;38.28;;;10.80;99.90;;;11.09;94.82;101242.75;5054822;28;20071;-70
2023/04/21 05:19:08;;;;;;;51.15;37.92;;;10.80;99.90;;;10.93;94.97;101224.25;5054451;28;20126;-71
2023/04/21 05:21:37;;;;;;;54.50;37.80;;;10.70;99.90;;;10.94;95.01;101245.41;5054809;28;20044;-71
2023/04/21 05:24:07;;;;;;;55.85;38.45;;;10.70;99.90;;;11.00;95.64;101249.81;5054551;28;20064;-71
2023/04/21 05:26:35;;;;;;;52.75;37.38;;;10.70;99.90;;;10.97;95.69;101232.19;5053196;28;20103;-72
2023/04/21 05:29:04;;;;;;;50.47;37.85;;;10.70;99.90;;;11.00;95.75;101231.28;5054156;28;20453;-72
2023/04/21 05:31:33;;;;;;;55.67;39.08;;;10.70;99.90;;;11.07;95.55;101233.94;5054510;28;20385;-72
2023/04/21 05:34:02;;;;;;;52.67;38.45;;;10.80;99.90;;;10.88;95.29;101225.13;5053066;28;20049;-72
2023/04/21 05:36:30;;;;;;;53.83;38.35;;;10.70;99.90;;;10.89;95.93;101237.50;5069657;28;20049;-72
2023/04/21 05:38:59;;;;;;;56.13;38.60;;;10.70;99.90;;;10.52;97.64;101235.69;5054087;28;20144;-72
2023/04/21 05:41:28;;;;;;;55.80;39.17;;;10.40;99.90;;;10.49;98.28;101237.47;5053994;28;20045;-72
2023/04/21 05:43:57;;;;;;;56.33;39.50;;;10.30;99.90;;;10.65;98.16;101249.81;5054159;28;20581;-72
2023/04/21 05:46:25;;;;;;;59.22;39.55;;;10.40;99.90;;;10.65;98.25;101249.81;5052759;28;20144;-72
2023/04/21 05:48:54;;;;;;;53.75;38.78;;;10.40;99.90;;;10.77;98.11;101248.06;5053834;28;20435;-72
2023/04/21 05:51:22;;;;;;;54.80;39.83;;;10.50;99.90;;;10.86;98.09;101249.81;5054357;28;20033;-72
2023/04/21 05:53:50;;;;;;;57.90;40.13;;;10.60;99.90;;;10.84;97.96;101264.81;5054089;28;20045;-72
2023/04/21 05:56:19;;;;;;;59.63;41.60;;;10.60;99.90;;;10.68;98.32;101263.91;5054036;28;20037;-72
2023/04/21 05:58:48;;;;;;;63.28;41.17;;;10.50;99.90;;;10.40;99.08;101248.88;5054437;28;20090;-72
2023/04/21 06:01:17;;;;;;;60.20;42.33;;;10.30;99.90;;;10.17;100.00;101260.25;5054018;28;20072;-72
2023/04/21 06:03:47;;;;;;;63.22;42.55;;;10.10;99.90;;;10.42;100.00;101268.28;5053525;28;20459;-72
2023/04/21 06:06:17;;;;;;;63.25;43.78;;;10.10;99.90;;;9.85;100.00;101257.47;5052280;28;20077;-72
2023/04/21 06:08:45;;;;;;;64.97;44.22;;;9.80;99.90;;;9.75;100.00;101263.59;5053814;28;20063;-72
2023/04/21 06:11:14;;;;;;;66.20;45.33;;;9.50;99.90;;;9.76;100.00;101263.59;5053529;28;20491;-72
2023/04/21 06:13:43;;;;;;;69.47;45.05;;;9.50;99.90;;;9.70;100.00;101276.75;5053445;28;20049;-73
2023/04/21 06:16:12;;;;;;;67.53;45.03;;;9.50;99.90;;;9.70;100.00;101265.31;5053453;28;20051;-72
2023/04/21 06:18:41;;;;;;;69.60;46.05;;;9.40;99.90;;;9.76;100.00;101263.59;5053845;28;20069;-72
2023/04/21 06:21:10;;;;;;;70.35;46.08;;;9.50;99.90;;;9.57;100.00;101245.88;5053922;28;20064;-72
2023/04/21 06:23:39;;;;;;;75.80;48.10;;;9.40;99.90;;;9.55;100.00;101262.59;5054132;28;20051;-72
2023/04/21 06:26:08;;;;;;;74.72;48.95;;;9.30;99.90;;;9.50;100.00;101259.03;5053511;28;20127;-72
2023/04/21 06:28:38;;;;;;;76.53;49.92;;;9.20;99.90;;;9.64;100.00;101268.78;5053167;28;20044;-72
2023/04/21 06:31:06;;;;;;;77.68;50.50;;;9.40;99.90;;;9.71;100.00;101262.69;5053457;28;20139;-73
2023/04/21 06:33:37;;;;;;;80.90;52.78;;;9.40;99.90;;;9.68;100.00;101262.66;5053341;28;20079;-72
2023/04/21 06:36:06;;;;;;;80.63;50.53;;;9.40;99.90;;;9.71;100.00;101264.44;5053018;28;20045;-73
2023/04/21 06:38:35;;;;;;;82.72;52.78;;;9.40;99.90;;;9.61;100.00;101263.50;5051570;28;20052;-72
2023/04/21 06:41:03;;;;;;;87.07;54.90;;;9.40;99.90;;;9.73;100.00;101258.31;5053160;28;20045;-72
2023/04/21 06:43:32;;;;;;;85.78;54.25;;;9.40;99.90;;;9.81;100.00;101253.91;5051577;28;20045;-72
2023/04/21 06:46:00;;;;;;;85.55;55.40;;;9.50;99.90;;;9.83;100.00;101259.22;5052931;28;20124;-72
2023/04/21 06:48:29;;;;;;;87.85;53.75;;;9.60;99.90;;;9.75;100.00;101253.03;5053235;28;20075;-72
2023/04/21 06:51:01;;;;;;;84.88;54.80;;;9.50;99.90;;;9.17;100.00;101161.16;5052918;28;20067;-72
2023/04/21 06:53:29;;;;;;;84.22;56.67;;;9.50;99.90;;;9.61;100.00;101245.03;5051877;28;20057;-72
2023/04/21 06:55:58;;;;;;;83.50;53.47;;;9.40;99.90;;;9.77;100.00;101257.44;5052804;28;20037;-73
2023/04/21 06:58:26;;;;;;;83.80;54.58;;;9.50;99.90;;;9.77;100.00;101260.09;5052954;28;20045;-72
2023/04/21 07:00:54;;;;;;;86.70;55.42;;;9.50;99.90;;;9.58;100.00;101178.97;5052815;28;20045;-72
2023/04/21 07:03:23;;;;;;;81.95;54.55;;;9.60;99.90;;;9.97;100.00;101258.41;5052927;28;20048;-72
2023/04/21 07:05:52;;;;;;;86.32;55.08;;;9.60;99.90;;;9.73;100.00;101237.19;5052542;28;20037;-72
2023/04/21 07:08:21;;;;;;;80.00;52.90;;;9.60;99.90;;;9.90;100.00;101256.63;5052547;28;20088;-72
2023/04/21 07:10:50;;;;;;;81.13;53.38;;;9.70;99.90;;;9.75;100.00;101250.38;5052253;28;20045;-73
2023/04/21 07:13:18;;;;;;;80.45;52.90;;;9.50;99.90;;;9.80;100.00;101264.47;5051096;28;20143;-73
2023/04/21 07:15:47;;;;;;;79.93;51.85;;;9.50;99.90;;;9.58;100.00;101258.19;5052233;28;20072;-71
2023/04/21 07:18:15;;;;;;;78.60;53.08;;;9.40;99.90;;;9.49;100.00;101239.66;5050554;28;20498;-73
2023/04/21 07:20:45;;;;;;;82.07;53.50;;;9.30;99.90;;;9.59;100.00;101253.81;5052418;28;20044;-73
2023/04/21 07:23:13;;;;;;;82.43;53.42;;;9.30;99.90;;;9.75;100.00;101253.91;5051082;28;20045;-73
2023/04/21 07:25:43;;;;;;;82.50;54.50;;;9.50;99.90;;;9.86;100.00;101252.19;5052119;28;20519;-73
2023/04/21 07:28:13;;;;;;;84.40;53.55;;;9.60;99.90;;;9.92;100.00;101252.22;5052261;28;20037;-74
2023/04/21 07:30:42;;;;;;;;;;;9.60;99.90;;;9.85;100.00;101253.06;5052745;28;20052;-74
2023/04/21 07:33:11;;;;;;;81.03;52.33;;;9.60;99.90;;;9.96;100.00;101251.38;5052336;28;20012;-73
2023/04/21 07:35:39;;;;;;;82.25;55.53;;;9.70;99.90;;;9.96;100.00;101254.00;5052286;28;20473;-74
2023/04/21 07:38:07;;;;;;;81.97;55.17;;;9.70;99.90;;;9.84;100.00;101246.03;5051964;28;20051;-73
2023/04/21 07:40:37;;;;;;;82.65;55.63;;;9.70;99.90;;;9.95;100.00;101265.44;5052003;28;20041;-74
2023/04/21 07:43:06;;;;;;;84.13;56.45;;;9.70;99.90;;;10.04;100.00;101270.75;5051895;28;20099;-71
2023/04/21 07:45:35;;;;;;;83.40;56.73;;;9.70;99.90;;;10.11;100.00;101223.25;5051030;28;20103;-72
2023/04/21 07:48:04;;;;;;;81.40;54.97;;;10.00;99.90;;;10.38;100.00;101258.56;5052110;28;20625;-73
2023/04/21 07:50:34;;;;;;;81.65;56.20;;;10.10;99.90;;;10.41;100.00;101255.97;5051875;28;20494;-72
2023/04/21 07:53:04;;;;;;;84.35;56.28;;;10.10;99.90;;;10.19;100.00;101264.69;5052436;28;20045;-74
2023/04/21 07:55:33;;;;;;;83.57;57.40;;;10.00;99.90;;;10.18;100.00;101264.69;5050616;28;20063;-77
2023/04/21 07:58:01;;;;;;;82.78;56.35;;;10.00;99.90;;;10.26;100.00;101273.53;5050936;28;20084;-73
2023/04/21 08:00:32;;;;;;;82.20;55.15;;;10.00;99.90;;;10.56;100.00;101268.31;5052518;28;20124;-75
2023/04/21 08:03:00;;;;;;;79.00;53.53;;;10.30;99.90;;;10.53;100.00;101255.09;5084397;28;20115;-75
2023/04/21 08:05:30;;;;;;;77.15;54.67;;;10.30;99.90;;;10.76;100.00;101258.66;5052047;28;20107;-73
2023/04/21 08:08:03;;;;;;;76.38;54.72;;;10.40;99.90;;;10.82;100.00;101259.53;5051920;28;20076;-73
2023/04/21 08:10:31;;;;;;;77.82;54.00;;;10.50;99.90;;;10.97;100.00;101260.44;5052144;28;20053;-72
2023/04/21 08:13:02;;;;;;;83.43;55.92;;;10.70;99.90;;;11.10;100.00;101255.13;5050730;28;20049;-71
2023/04/21 08:15:32;;;;;;;79.53;56.10;;;10.80;99.90;;;10.95;100.00;101248.94;5051686;28;20037;-71
2023/04/21 08:18:01;;;;;;;74.13;52.08;;;10.80;99.90;;;10.91;99.86;101263.97;5051706;28;20637;-69
2023/04/21 08:20:30;;;;;;;71.75;51.15;;;10.70;99.90;;;10.71;98.68;101250.72;5050472;28;20465;-72
2023/04/21 08:22:58;;;;;;;75.70;55.90;;;10.60;99.90;;;11.13;99.61;101260.41;5051527;28;20521;-72
2023/04/21 08:25:27;;;;;;;74.88;54.13;;;10.80;99.90;;;11.00;99.23;101258.66;5051320;28;20049;-72
2023/04/21 08:27:55;;;;;;;70.45;51.97;;;10.70;99.90;;;10.96;99.37;101251.59;5051437;28;20044;-71
2023/04/21 08:30:24;;;;;;;74.47;52.60;;;10.80;99.90;;;10.91;100.00;101229.56;5053460;28;20517;-71
2023/04/21 08:32:53;;;;;;;70.18;51.90;;;10.80;99.90;;;10.79;98.37;101251.59;5055360;28;20041;-71
2023/04/21 08:35:22;;;;;;;73.90;52.97;;;10.60;99.90;;;10.93;99.16;101262.19;5055374;28;20060;-71
2023/04/21 08:37:51;;;;;;;70.43;51.55;;;10.60;99.90;;;11.14;99.06;101256.00;5055225;28;20099;-71
2023/04/21 08:40:22;;;;;;;68.28;49.67;;;10.80;99.90;;;10.96;96.96;101250.69;5055384;28;20060;-73
2023/04/21 08:42:51;;;;;;;63.05;47.28;;;10.80;99.90;;;10.97;94.89;101268.38;5055014;28;20095;-74
2023/04/21 08:45:19;;;;;;;65.82;47.80;;;10.80;99.90;;;11.03;94.45;101253.38;5054873;28;20049;-72
2023/04/21 08:47:49;;;;;;;67.10;50.72;;;10.70;99.90;;;11.22;93.71;101268.38;5054866;28;20098;-73
2023/04/21 08:50:20;;;;;;;68.93;52.05;;;10.90;99.90;;;11.48;95.38;101257.72;5055197;28;20459;-73
2023/04/21 08:52:48;;;;;;;70.10;53.03;;;11.10;99.90;;;11.67;94.98;101247.13;5053912;28;20127;-73
2023/04/21 08:55:17;;;;;;;69.50;52.20;;;11.30;99.90;;;11.60;93.39;101261.25;5055145;28;20044;-70
2023/04/21 08:57:45;;;;;;;66.38;48.58;;;11.30;99.90;;;11.30;93.01;101263.06;5054867;28;20076;-71
2023/04/21 09:00:14;;;;;;;63.55;48.25;;;11.10;99.90;;;11.27;92.58;101253.34;5054793;28;20041;-70
2023/04/21 09:02:56;;;;;;;66.72;49.85;;;11.00;99.90;;;11.64;93.19;101247.09;5054991;28;20459;-73
2023/04/21 09:05:33;;;;;;;66.80;49.65;;;11.20;99.90;;;11.47;92.27;101256.84;5054658;28;20040;-69
2023/04/21 09:08:10;;;;;;;72.90;52.45;;;11.20;99.90;;;11.50;94.30;101242.69;5054754;28;20083;-73
2023/04/21 09:10:45;;;;;;;65.13;50.05;;;11.20;99.90;;;11.41;93.82;101246.28;5054888;28;20486;-70
2023/04/21 09:13:14;;;;;;;62.42;47.97;;;11.20;99.90;;;11.70;92.52;101248.88;5054537;28;20037;-75
2023/04/21 09:15:44;;;;;;;58.35;46.25;;;11.30;99.90;;;11.71;90.02;101255.97;5054770;28;20051;-74
2023/04/21 09:18:15;;;;;;;58.03;45.28;;;11.40;99.90;;;11.84;89.70;101246.19;5053249;28;20076;-73
2023/04/21 09:20:47;;;;;;;55.78;42.17;;;11.50;99.90;;;11.89;88.39;101247.94;5054619;28;20436;-70
2023/04/21 09:23:17;;;;;;;55.33;42.92;;;11.60;99.90;;;11.99;88.80;101248.78;5070049;28;20461;-70
2023/04/21 09:25:45;;;;;;;55.25;44.05;;;11.70;99.90;;;11.85;87.08;101258.53;5054231;28;20479;-71
2023/04/21 09:28:15;;;;;;;56.97;44.20;;;11.60;99.90;;;11.72;89.27;101237.41;5053362;28;20072;-70
2023/04/21 09:30:43;;;;;;;50.65;42.17;;;11.40;99.90;;;12.10;87.75;101244.31;5054697;28;20047;-70
2023/04/21 09:33:17;;;;;;;51.70;40.40;;;11.70;99.90;;;12.24;85.96;101247.78;5054278;28;20099;-71
2023/04/21 09:36:02;;;;;;;46.78;38.40;;;11.90;99.90;;;11.95;84.75;101270.88;5054546;28;20559;-71
2023/04/21 09:38:32;;;;;;;52.58;41.10;;;11.80;99.90;;;12.20;87.07;101261.94;5054500;28;20436;-71
2023/04/21 09:41:01;;;;;;;48.87;39.30;;;11.90;99.90;;;12.12;84.55;101253.13;5054354;28;20496;-70
2023/04/21 09:43:29;;;;;;;53.92;42.88;;;11.90;99.90;;;12.35;87.56;101256.56;5054124;28;20298;-70
2023/04/21 09:45:59;;;;;;;50.92;42.10;;;12.00;99.90;;;12.67;84.44;101247.53;5054103;28;20052;-70
2023/04/21 09:48:32;;;;;;;50.50;39.22;;;12.30;99.90;;;12.12;83.67;101254.00;5053435;28;20254;-70
2023/04/21 09:51:02;;;;;;;44.20;37.92;;;11.90;99.90;;;12.41;83.64;101229.97;5054689;28;20068;-70
2023/04/21 09:53:57;;;;;;;46.85;38.40;;;12.10;99.90;;;12.96;83.34;101247.28;5053273;28;20064;-69
2023/04/21 09:56:29;;;;;;;46.47;37.75;;;12.60;99.90;;;13.00;81.62;101237.53;5054108;28;20041;-71
2023/04/21 09:59:01;;;;;;;42.55;36.88;;;12.70;99.90;;;13.61;81.91;101240.53;5054081;28;20469;-72
2023/04/21 10:01:30;;;;;;;39.55;35.22;;;13.20;99.90;;;13.49;79.15;101234.41;5054077;28;20144;-74
2023/04/21 10:03:59;;;;;;;40.92;35.00;;;13.40;99.90;;;12.83;78.70;101245.63;5053872;28;20487;-73
2023/04/21 10:06:30;;;;;;;40.50;33.58;;;12.80;99.90;;;13.08;79.92;101233.97;5054022;28;20045;-74
2023/04/21 10:09:00;;;;;;;40.20;34.55;;;12.80;99.90;;;12.96;79.40;101241.97;5052594;28;20052;-74
2023/04/21 10:11:28;;;;;;;41.38;34.50;;;12.70;99.90;;;12.75;78.84;101242.16;5053633;28;20512;-74